Boston Elite — WDJ5159 — position and weather

sailwx.info

Track history (hours):
 
Tides and Currents Weather Stations Pressure Air Temp Water Temp Dewpoint Dewpoint Depression Visibility Wind Speed Wind Dir Waves Ship Positions

Boston Elite

Owner: Spirit Cruises LLC, Chicago, IL. More information available from US FCC via Universal Licensing System and Coast Guard Vessel Documentation Center.

Last reported at 2017-Dec-09 21:47 UTC. Time now 2017-Dec-17 04:12 UTC.
Position N 42°21' W 071°03'.

Length 30 m; draft 1.7 m.

Type: Ship. MMSI: 367784920.

Date/timePositionNaut miles runAvg speedWind from/ knotsBaromVisibWave heightAir tempDewpointWater temp
2017-Dec-09 21:47N 42°21' W 071°03'1 2.2
2017-Dec-09 21:30N 42°22' W 071°03'0 0.7
2017-Dec-09 21:00N 42°22' W 071°03'2 3.0
2017-Dec-09 20:30N 42°23' W 071°03'2 3.6
2017-Dec-09 20:00N 42°21' W 071°02'1 1.8
2017-Dec-09 19:30N 42°22' W 071°03'1 1.2
2017-Dec-09 18:49N 42°21' W 071°03'  
2017-Dec-03 00:50N 42°21' W 071°03'1 2.2
2017-Dec-03 00:30N 42°22' W 071°03'0 0.8
2017-Dec-03 00:00N 42°22' W 071°03'3 5.4
2017-Dec-02 23:30N 42°20' W 071°00'1 0.9
2017-Dec-02 22:26N 42°20' W 070°59'0 0.1
2017-Dec-02 22:00N 42°20' W 070°59'3 5.2
2017-Dec-02 21:30N 42°21' W 071°02'0 0.9
2017-Dec-02 21:00N 42°21' W 071°03'0 0.0
2017-Dec-02 20:29N 42°21' W 071°03'0 0.0
2017-Dec-02 19:59N 42°21' W 071°03'0 0.0
2017-Dec-01 19:58N 42°21' W 071°03'2 3.2
2017-Dec-01 19:28N 42°21' W 071°01'1 1.1
2017-Dec-01 18:42N 42°21' W 071°02'1 5.9
2017-Dec-01 18:30N 42°22' W 071°03'  
Track history (hours):
 
Tides and Currents Weather Stations Pressure Air Temp Water Temp Dewpoint Dewpoint Depression Visibility Wind Speed Wind Dir Waves Ship Positions

Boston Elite

Owner: Spirit Cruises LLC, Chicago, IL. More information available from US FCC via Universal Licensing System and Coast Guard Vessel Documentation Center.

Last reported at 2017-Dec-09 21:47 UTC. Time now 2017-Dec-17 04:12 UTC.
Position N 42°21' W 071°03'.

Length 30 m; draft 1.7 m.

Type: Ship. MMSI: 367784920.

Date/timePositionNaut miles runAvg speedWind from/ knotsBaromVisibWave heightAir tempDewpointWater temp
2017-Dec-09 21:47N 42°21' W 071°03'1 2.2
2017-Dec-09 21:30N 42°22' W 071°03'0 0.7
2017-Dec-09 21:00N 42°22' W 071°03'2 3.0
2017-Dec-09 20:30N 42°23' W 071°03'2 3.6
2017-Dec-09 20:00N 42°21' W 071°02'1 1.8
2017-Dec-09 19:30N 42°22' W 071°03'1 1.2
2017-Dec-09 18:49N 42°21' W 071°03'  
2017-Dec-03 00:50N 42°21' W 071°03'1 2.2
2017-Dec-03 00:30N 42°22' W 071°03'0 0.8
2017-Dec-03 00:00N 42°22' W 071°03'3 5.4
2017-Dec-02 23:30N 42°20' W 071°00'1 0.9
2017-Dec-02 22:26N 42°20' W 070°59'0 0.1
2017-Dec-02 22:00N 42°20' W 070°59'3 5.2
2017-Dec-02 21:30N 42°21' W 071°02'0 0.9
2017-Dec-02 21:00N 42°21' W 071°03'0 0.0
2017-Dec-02 20:29N 42°21' W 071°03'0 0.0
2017-Dec-02 19:59N 42°21' W 071°03'0 0.0
2017-Dec-01 19:58N 42°21' W 071°03'2 3.2
2017-Dec-01 19:28N 42°21' W 071°01'1 1.1
2017-Dec-01 18:42N 42°21' W 071°02'1 5.9
2017-Dec-01 18:30N 42°22' W 071°03'  

Dump ship's entire track history